Time;durP1;ratioP1;P1;durP2;ratioP2;P2;SDS_P1;SDS_P2;PMS_P1;PMS_P2;Temp;Humidity;BMP_temperature;BMP_pressure;BME280_temperature;BME280_humidity;BME280_pressure;Samples;Min_cycle;Max_cycle;Signal;HPM_P1;HPM_P2
2021/04/08 00:00:51;;;;;;;9.35;5.55;;;0.60;99.90;;;;;;4976696;28;20193;-88
2021/04/08 00:03:17;;;;;;;15.45;6.22;;;0.60;99.90;;;;;;4975739;28;20705;-88
2021/04/08 00:05:44;;;;;;;20.20;6.50;;;0.60;99.90;;;;;;4975562;28;20281;-87
2021/04/08 00:08:10;;;;;;;9.73;7.10;;;0.60;99.90;;;;;;4975880;28;20188;-88
2021/04/08 00:10:37;;;;;;;16.92;9.05;;;0.50;99.90;;;;;;4978450;28;20195;-88
2021/04/08 00:13:04;;;;;;;17.33;6.28;;;0.50;99.90;;;;;;4976092;28;20248;-90
2021/04/08 00:15:31;;;;;;;21.42;7.50;;;0.50;99.90;;;;;;4976583;28;20196;-87
2021/04/08 00:17:57;;;;;;;15.98;10.45;;;0.50;99.90;;;;;;4976084;28;20625;-87
2021/04/08 00:20:24;;;;;;;14.88;7.75;;;0.40;99.90;;;;;;4976099;28;20220;-88
2021/04/08 00:22:51;;;;;;;20.90;9.20;;;0.50;99.90;;;;;;4978664;28;20195;-87
2021/04/08 00:25:17;;;;;;;15.55;8.32;;;0.50;99.90;;;;;;4978866;28;20276;-88
2021/04/08 00:27:44;;;;;;;18.92;8.32;;;0.50;99.90;;;;;;4978062;28;20591;-88
2021/04/08 00:30:13;;;;;;;15.40;8.52;;;0.50;99.90;;;;;;4976782;28;20197;-87
2021/04/08 00:32:40;;;;;;;13.77;7.68;;;0.50;99.90;;;;;;4977726;28;20199;-88
2021/04/08 00:35:08;;;;;;;13.98;8.40;;;0.50;99.90;;;;;;4981396;28;20192;-87
2021/04/08 00:37:35;;;;;;;15.43;9.43;;;0.50;99.90;;;;;;4987209;28;20323;-88
2021/04/08 00:40:04;;;;;;;20.67;8.52;;;0.40;99.90;;;;;;4988782;28;20239;-88
2021/04/08 00:42:31;;;;;;;16.88;8.90;;;0.40;99.90;;;;;;4990165;28;20217;-88
2021/04/08 00:44:57;;;;;;;13.52;9.75;;;0.30;99.90;;;;;;4984142;28;20219;-88
2021/04/08 00:47:23;;;;;;;11.07;8.10;;;0.40;99.90;;;;;;4983089;28;20200;-87
2021/04/08 00:49:51;;;;;;;14.00;8.27;;;0.30;99.90;;;;;;4983061;28;20192;-88
2021/04/08 00:52:17;;;;;;;10.15;6.50;;;0.40;99.90;;;;;;4983632;28;20210;-88
2021/04/08 00:54:44;;;;;;;14.75;7.95;;;0.30;99.90;;;;;;4981891;28;20195;-87
2021/04/08 00:57:11;;;;;;;14.07;8.00;;;0.30;99.90;;;;;;4983226;28;20201;-86
2021/04/08 00:59:38;;;;;;;13.25;8.40;;;0.30;99.90;;;;;;4985356;28;20219;-88
2021/04/08 01:02:04;;;;;;;25.98;8.82;;;0.20;99.90;;;;;;4982428;28;20197;-88
2021/04/08 01:04:31;;;;;;;13.15;7.72;;;0.30;99.90;;;;;;4981448;28;20219;-89
2021/04/08 01:06:58;;;;;;;13.15;6.95;;;0.30;99.90;;;;;;4981686;28;20203;-88
2021/04/08 01:09:24;;;;;;;16.92;10.52;;;0.20;99.90;;;;;;4984675;28;20184;-87
2021/04/08 01:11:51;;;;;;;14.63;9.05;;;0.20;99.90;;;;;;4981904;28;20195;-88
2021/04/08 01:14:18;;;;;;;21.67;9.77;;;0.20;99.90;;;;;;4980925;28;20233;-87
2021/04/08 01:16:48;;;;;;;15.40;10.07;;;0.30;99.90;;;;;;4981261;28;20207;-87
2021/04/08 01:19:35;;;;;;;16.65;9.70;;;0.30;99.90;;;;;;4980206;28;20190;-90
2021/04/08 01:22:12;;;;;;;16.08;10.00;;;0.40;99.90;;;;;;4979634;28;20191;-89
2021/04/08 01:25:01;;;;;;;17.33;8.60;;;0.40;99.90;;;;;;4980925;28;20221;-86
2021/04/08 01:27:37;;;;;;;15.10;8.55;;;0.30;99.90;;;;;;4992436;28;20200;-89
2021/04/08 01:30:42;;;;;;;17.83;9.48;;;0.30;99.90;;;;;;4997399;28;20202;-88
2021/04/08 01:33:13;;;;;;;17.95;10.00;;;0.30;99.90;;;;;;4999498;28;20219;-88
2021/04/08 01:35:42;;;;;;;13.60;8.00;;;0.20;99.90;;;;;;4981500;28;20323;-88
2021/04/08 01:38:13;;;;;;;16.48;8.40;;;0.20;99.90;;;;;;4979096;28;20199;-88
2021/04/08 01:40:41;;;;;;;13.93;8.52;;;0.20;99.90;;;;;;4981177;28;20200;-88
2021/04/08 01:43:08;;;;;;;18.00;9.13;;;0.10;99.90;;;;;;4979374;28;20255;-87
2021/04/08 01:45:36;;;;;;;16.35;9.60;;;0.10;99.90;;;;;;4979288;28;20588;-87
2021/04/08 01:48:07;;;;;;;12.85;9.20;;;0.10;99.90;;;;;;4979372;28;20192;-88
2021/04/08 01:50:34;;;;;;;14.38;9.25;;;0.10;99.90;;;;;;4980834;28;20203;-88
2021/04/08 01:53:03;;;;;;;14.05;9.77;;;0.10;99.90;;;;;;4982417;28;20198;-88
2021/04/08 01:55:31;;;;;;;12.40;8.50;;;0.10;99.90;;;;;;4982880;28;20202;-88
2021/04/08 01:58:00;;;;;;;13.98;9.32;;;0.10;99.90;;;;;;4997916;28;20172;-88
2021/04/08 02:00:27;;;;;;;22.08;10.00;;;0.10;99.90;;;;;;5001135;28;20247;-87
2021/04/08 02:05:39;;;;;;;21.75;11.60;;;0.00;99.90;;;;;;4984265;28;20218;-88
2021/04/08 02:08:07;;;;;;;22.55;10.65;;;0.10;99.90;;;;;;4977778;28;20247;-88
2021/04/08 02:10:34;;;;;;;15.75;10.68;;;0.10;99.90;;;;;;4978383;28;20207;-88
2021/04/08 02:13:02;;;;;;;21.02;10.40;;;0.10;99.90;;;;;;4978616;28;20206;-88
2021/04/08 02:15:34;;;;;;;19.80;9.85;;;0.10;99.90;;;;;;4979441;28;20215;-88
2021/04/08 02:18:03;;;;;;;12.50;7.78;;;0.00;99.90;;;;;;4980482;28;20206;-89
2021/04/08 02:20:33;;;;;;;13.85;8.70;;;0.00;99.90;;;;;;4978552;28;20230;-89
2021/04/08 02:23:01;;;;;;;18.70;8.38;;;0.10;99.90;;;;;;4977958;28;20262;-88
2021/04/08 02:25:30;;;;;;;18.90;9.80;;;0.00;99.90;;;;;;4977722;28;20190;-89
2021/04/08 02:27:59;;;;;;;12.70;9.18;;;-0.10;99.90;;;;;;4978233;28;20277;-88
2021/04/08 02:30:26;;;;;;;13.38;8.18;;;-0.10;99.90;;;;;;4977123;28;20210;-87
2021/04/08 02:32:54;;;;;;;19.13;8.80;;;-0.10;99.90;;;;;;4977550;28;20659;-88
2021/04/08 02:35:22;;;;;;;17.17;9.77;;;-0.10;99.90;;;;;;4978447;28;20318;-88
2021/04/08 02:37:50;;;;;;;13.80;9.95;;;-0.10;99.90;;;;;;4979929;28;20258;-88
2021/04/08 02:40:20;;;;;;;19.52;10.52;;;-0.20;99.90;;;;;;4979751;28;20218;-88
2021/04/08 02:42:47;;;;;;;18.83;11.23;;;-0.10;99.90;;;;;;4981122;28;20191;-88
2021/04/08 02:45:16;;;;;;;21.50;12.60;;;-0.10;99.90;;;;;;4978695;28;20305;-88
2021/04/08 02:47:42;;;;;;;22.15;12.07;;;-0.10;99.90;;;;;;4979971;28;20191;-89
2021/04/08 02:50:10;;;;;;;27.60;14.07;;;-0.10;99.90;;;;;;4984097;28;20599;-89
2021/04/08 02:52:50;;;;;;;21.95;13.30;;;-0.10;99.90;;;;;;4985601;28;20195;-89
2021/04/08 02:55:23;;;;;;;22.13;13.15;;;-0.10;99.90;;;;;;4984102;28;20651;-89
2021/04/08 02:57:55;;;;;;;22.17;12.15;;;-0.10;99.90;;;;;;4979730;28;20223;-88
2021/04/08 03:00:27;;;;;;;20.10;11.60;;;0.00;99.90;;;;;;4980524;28;20190;-88
2021/04/08 03:02:59;;;;;;;18.55;10.48;;;-0.10;99.90;;;;;;4979645;28;20628;-88
2021/04/08 03:05:27;;;;;;;21.08;11.75;;;-0.10;99.90;;;;;;4977467;28;20192;-88
2021/04/08 03:07:55;;;;;;;28.65;11.88;;;-0.10;99.90;;;;;;4977770;28;20246;-87
2021/04/08 03:10:23;;;;;;;24.88;11.82;;;-0.10;99.90;;;;;;4977956;28;20279;-88
2021/04/08 03:12:51;;;;;;;27.45;12.73;;;0.00;99.90;;;;;;4975695;28;20683;-89
2021/04/08 03:15:23;;;;;;;19.65;10.65;;;0.00;99.90;;;;;;4983767;28;20230;-90
2021/04/08 03:17:52;;;;;;;22.08;13.43;;;0.00;99.90;;;;;;4981423;28;20529;-89
2021/04/08 03:20:19;;;;;;;17.92;10.35;;;-0.10;99.90;;;;;;4977011;28;20311;-88
2021/04/08 03:22:47;;;;;;;22.35;10.77;;;-0.10;99.90;;;;;;4979185;28;20286;-89
2021/04/08 03:25:14;;;;;;;24.77;10.52;;;-0.10;99.90;;;;;;4965762;28;20223;-89
2021/04/08 03:27:42;;;;;;;19.83;11.13;;;-0.10;99.90;;;;;;4977576;28;20590;-89
2021/04/08 03:30:11;;;;;;;14.75;10.77;;;-0.10;99.90;;;;;;4977153;28;20227;-89
2021/04/08 03:32:38;;;;;;;14.95;9.27;;;-0.10;99.90;;;;;;4974312;28;20195;-91
2021/04/08 03:35:06;;;;;;;24.02;10.60;;;-0.10;99.90;;;;;;4976444;28;20278;-90
2021/04/08 03:37:32;;;;;;;19.27;10.25;;;-0.10;99.90;;;;;;4975965;28;20190;-89
2021/04/08 03:39:59;;;;;;;17.48;10.55;;;-0.10;99.90;;;;;;4976419;28;20687;-90
2021/04/08 03:42:26;;;;;;;20.98;11.70;;;-0.20;99.90;;;;;;4975907;28;20196;-89
2021/04/08 03:44:53;;;;;;;19.77;10.60;;;-0.20;99.90;;;;;;4976012;28;20224;-90
2021/04/08 03:47:22;;;;;;;28.40;17.60;;;-0.10;99.90;;;;;;4976124;28;20265;-89
2021/04/08 03:49:51;;;;;;;34.45;15.43;;;-0.20;99.90;;;;;;4976318;28;20718;-89
2021/04/08 03:52:18;;;;;;;27.05;18.17;;;-0.10;99.90;;;;;;4975509;28;20272;-89
2021/04/08 03:54:48;;;;;;;72.05;42.63;;;-0.10;99.90;;;;;;4976077;28;20259;-89
2021/04/08 03:57:17;;;;;;;90.82;52.45;;;0.00;99.90;;;;;;4975722;28;20199;-90
2021/04/08 03:59:45;;;;;;;94.75;53.20;;;-0.10;99.90;;;;;;4976153;28;20195;-89
2021/04/08 04:02:13;;;;;;;165.88;87.35;;;0.00;99.90;;;;;;4976495;28;20557;-89
2021/04/08 04:04:40;;;;;;;71.63;37.58;;;0.00;99.90;;;;;;4975816;28;20216;-90
2021/04/08 04:07:08;;;;;;;446.00;257.10;;;0.10;99.90;;;;;;4976098;28;20672;-90
2021/04/08 04:09:35;;;;;;;83.15;44.67;;;0.10;99.90;;;;;;4975482;28;20199;-89
2021/04/08 04:12:02;;;;;;;48.58;29.77;;;0.10;99.90;;;;;;4976144;28;20265;-91
2021/04/08 04:14:30;;;;;;;37.95;22.88;;;0.10;99.90;;;;;;4976392;28;20270;-90
2021/04/08 04:16:58;;;;;;;18.05;12.77;;;0.20;99.90;;;;;;4976355;28;20555;-90
2021/04/08 04:19:26;;;;;;;27.73;19.83;;;0.10;99.90;;;;;;4976104;28;20184;-90
2021/04/08 04:21:52;;;;;;;18.20;11.35;;;0.20;99.90;;;;;;4976842;28;20283;-89
2021/04/08 04:24:19;;;;;;;57.05;32.42;;;0.20;99.90;;;;;;4976479;28;20663;-89
2021/04/08 04:26:46;;;;;;;250.43;147.35;;;0.20;99.90;;;;;;4977624;28;20216;-90
2021/04/08 04:29:12;;;;;;;59.78;39.92;;;0.20;99.90;;;;;;4979597;28;20196;-89
2021/04/08 04:31:39;;;;;;;68.82;42.97;;;0.20;99.90;;;;;;4996454;28;20219;-90
2021/04/08 04:34:08;;;;;;;46.85;30.70;;;0.30;99.90;;;;;;4997408;28;20239;-89
2021/04/08 04:36:35;;;;;;;24.38;12.20;;;0.40;99.90;;;;;;4998073;28;20669;-89
2021/04/08 04:39:02;;;;;;;32.90;18.63;;;0.40;99.90;;;;;;4984271;28;20267;-89
2021/04/08 04:41:29;;;;;;;20.73;17.08;;;0.40;99.90;;;;;;4975905;28;20227;-90
2021/04/08 04:43:55;;;;;;;17.10;9.95;;;0.50;99.90;;;;;;4976118;28;20241;-89
2021/04/08 04:46:22;;;;;;;24.10;13.10;;;0.50;99.90;;;;;;4977360;28;20195;-89
2021/04/08 04:48:48;;;;;;;15.07;9.88;;;0.60;99.90;;;;;;4977939;28;20197;-89
2021/04/08 04:51:15;;;;;;;19.15;11.15;;;0.60;99.90;;;;;;4979495;28;20200;-90
2021/04/08 04:53:42;;;;;;;12.43;8.73;;;0.70;99.90;;;;;;4976087;28;20222;-89
2021/04/08 04:56:08;;;;;;;15.90;8.25;;;0.70;99.90;;;;;;4975077;28;20190;-90
2021/04/08 04:58:35;;;;;;;16.30;9.23;;;0.70;99.90;;;;;;4974889;28;20195;-86
2021/04/08 05:01:01;;;;;;;12.45;9.95;;;0.80;99.90;;;;;;4974375;28;20198;-86
2021/04/08 05:03:27;;;;;;;14.50;7.65;;;0.80;99.90;;;;;;4974425;28;20528;-86
2021/04/08 05:05:54;;;;;;;11.38;9.02;;;0.80;99.90;;;;;;4974123;28;20202;-85
2021/04/08 05:08:20;;;;;;;15.30;7.03;;;0.80;99.90;;;;;;4974685;28;20190;-86
2021/04/08 05:10:47;;;;;;;12.98;7.70;;;0.80;99.90;;;;;;4972786;28;20205;-86
2021/04/08 05:13:14;;;;;;;10.63;7.18;;;0.90;99.90;;;;;;4974884;28;20204;-85
2021/04/08 05:15:40;;;;;;;18.23;10.13;;;0.90;99.90;;;;;;4974093;28;20643;-85
2021/04/08 05:18:06;;;;;;;11.02;8.98;;;0.90;99.90;;;;;;4974372;28;20202;-85
2021/04/08 05:20:33;;;;;;;17.15;8.82;;;0.90;99.90;;;;;;4975283;28;20227;-86
2021/04/08 05:22:59;;;;;;;13.35;8.35;;;1.00;99.90;;;;;;4978024;28;20284;-87
2021/04/08 05:25:26;;;;;;;19.45;8.18;;;1.00;99.90;;;;;;4976994;28;20216;-88
2021/04/08 05:27:53;;;;;;;10.70;7.38;;;1.00;99.90;;;;;;4978087;28;20604;-87
2021/04/08 05:30:20;;;;;;;15.32;8.55;;;1.00;99.90;;;;;;4977314;28;20190;-88
2021/04/08 05:32:46;;;;;;;15.75;10.40;;;1.00;99.90;;;;;;4978669;28;20697;-87
2021/04/08 05:35:13;;;;;;;13.38;9.18;;;1.30;99.90;;;;;;4978031;28;20281;-88
2021/04/08 05:37:40;;;;;;;14.75;8.52;;;1.20;99.90;;;;;;4977709;28;20193;-87
2021/04/08 05:40:07;;;;;;;22.77;9.90;;;1.20;99.90;;;;;;4977990;28;20249;-87
2021/04/08 05:42:33;;;;;;;19.42;8.02;;;1.20;99.90;;;;;;4977330;28;20289;-86
2021/04/08 05:45:01;;;;;;;13.40;6.30;;;1.20;99.90;;;;;;4977527;28;20272;-85
2021/04/08 05:47:27;;;;;;;13.85;7.70;;;1.20;99.90;;;;;;4977561;28;20274;-87
2021/04/08 05:49:54;;;;;;;12.68;8.15;;;1.30;99.90;;;;;;4977589;28;20710;-86
2021/04/08 05:52:20;;;;;;;13.98;8.15;;;1.40;99.90;;;;;;4976940;28;20340;-86
2021/04/08 05:54:47;;;;;;;12.07;6.90;;;1.40;99.90;;;;;;4977371;28;20199;-84
2021/04/08 05:57:13;;;;;;;13.38;8.18;;;1.40;99.90;;;;;;4977085;28;20213;-86
2021/04/08 05:59:39;;;;;;;14.43;6.80;;;1.50;99.90;;;;;;4977055;28;20298;-85
2021/04/08 06:02:07;;;;;;;15.13;7.38;;;1.60;99.90;;;;;;4977469;28;20199;-86
2021/04/08 06:04:33;;;;;;;14.85;7.13;;;1.50;99.90;;;;;;4977182;28;20219;-87
2021/04/08 06:07:00;;;;;;;13.15;6.82;;;1.60;99.90;;;;;;4977054;28;20277;-86
2021/04/08 06:09:26;;;;;;;12.25;6.63;;;1.70;99.90;;;;;;4976938;28;20214;-87
2021/04/08 06:11:52;;;;;;;15.70;5.85;;;1.70;99.90;;;;;;4977312;28;20277;-86
2021/04/08 06:14:19;;;;;;;11.68;6.35;;;1.80;99.90;;;;;;4977109;28;20661;-87
2021/04/08 06:16:46;;;;;;;7.72;5.68;;;1.90;99.90;;;;;;4979616;28;20202;-86
2021/04/08 06:19:13;;;;;;;12.15;6.80;;;1.80;99.90;;;;;;4980095;28;20270;-85
2021/04/08 06:21:39;;;;;;;7.47;5.55;;;1.90;99.90;;;;;;4974855;28;20228;-86
2021/04/08 06:24:07;;;;;;;9.68;5.85;;;1.90;99.90;;;;;;4990923;28;20596;-85
2021/04/08 06:26:34;;;;;;;11.52;7.65;;;1.90;99.90;;;;;;4977710;28;20210;-85
2021/04/08 06:29:00;;;;;;;9.55;5.68;;;2.00;99.90;;;;;;4972943;28;20221;-87
2021/04/08 06:31:27;;;;;;;13.93;6.65;;;2.00;99.90;;;;;;4974017;28;20638;-85
2021/04/08 06:33:54;;;;;;;17.75;6.43;;;2.00;99.90;;;;;;4976146;28;20228;-86
2021/04/08 06:36:21;;;;;;;10.38;5.72;;;2.10;99.90;;;;;;4974215;28;20230;-85
2021/04/08 06:38:49;;;;;;;13.52;7.80;;;2.10;99.90;;;;;;4962711;28;20666;-87
2021/04/08 06:41:16;;;;;;;11.13;7.40;;;2.20;99.90;;;;;;4975548;28;20730;-84
2021/04/08 06:43:44;;;;;;;12.98;7.50;;;2.20;99.90;;;;;;4976579;28;20303;-86
2021/04/08 06:46:15;;;;;;;15.10;8.55;;;2.20;99.90;;;;;;4977794;28;20186;-86
2021/04/08 06:48:44;;;;;;;9.90;8.88;;;2.30;99.90;;;;;;4981382;28;20220;-85
2021/04/08 06:51:14;;;;;;;12.50;8.57;;;2.30;99.90;;;;;;4978762;28;20197;-88
2021/04/08 06:53:42;;;;;;;10.70;8.80;;;2.30;99.90;;;;;;4978000;28;20232;-86
2021/04/08 06:56:08;;;;;;;11.00;8.32;;;2.40;99.90;;;;;;4978745;28;20616;-85
2021/04/08 06:58:36;;;;;;;10.65;9.55;;;2.40;99.90;;;;;;4977435;28;20252;-83
2021/04/08 07:01:06;;;;;;;14.65;11.00;;;2.50;99.90;;;;;;4977904;28;20193;-86
2021/04/08 07:03:32;;;;;;;14.88;9.07;;;2.50;99.90;;;;;;4977127;28;20344;-85
2021/04/08 07:06:03;;;;;;;15.50;9.50;;;2.70;99.90;;;;;;4979025;28;20190;-86
2021/04/08 07:08:30;;;;;;;10.70;8.15;;;2.70;99.90;;;;;;4980419;28;20203;-86
2021/04/08 07:10:57;;;;;;;11.32;8.13;;;2.80;99.90;;;;;;4982466;28;20194;-88
2021/04/08 07:13:27;;;;;;;13.75;8.00;;;3.00;99.90;;;;;;4979711;28;20181;-83
2021/04/08 07:15:55;;;;;;;13.93;8.60;;;3.00;99.90;;;;;;4998496;28;20183;-84
2021/04/08 07:18:23;;;;;;;10.95;9.15;;;3.10;99.90;;;;;;4998017;28;20215;-83
2021/04/08 07:20:50;;;;;;;20.48;9.45;;;3.20;99.90;;;;;;4983877;28;20297;-83
2021/04/08 07:23:17;;;;;;;10.23;8.63;;;3.30;99.90;;;;;;4978706;28;20325;-83
2021/04/08 07:26:03;;;;;;;14.82;9.68;;;3.30;99.90;;;;;;4976584;28;20263;-85
2021/04/08 07:28:30;;;;;;;13.65;7.82;;;3.40;99.90;;;;;;4976590;28;20276;-84
2021/04/08 07:30:56;;;;;;;13.05;8.13;;;3.50;99.90;;;;;;4976894;28;20197;-85
2021/04/08 07:33:22;;;;;;;18.15;9.50;;;3.60;99.90;;;;;;4977643;28;20541;-85
2021/04/08 07:35:49;;;;;;;11.40;8.32;;;3.60;99.90;;;;;;4980978;28;20193;-85
2021/04/08 07:38:15;;;;;;;15.90;9.23;;;3.60;99.90;;;;;;4991891;28;20273;-84
2021/04/08 07:40:58;;;;;;;13.55;8.43;;;3.70;99.90;;;;;;4994071;28;20179;-85
2021/04/08 07:43:25;;;;;;;16.67;10.27;;;3.80;99.90;;;;;;4979795;28;20225;-84
2021/04/08 07:45:52;;;;;;;14.20;8.15;;;3.90;99.90;;;;;;4976987;28;20257;-85
2021/04/08 07:48:32;;;;;;;7.68;5.95;;;3.90;99.90;;;;;;4976847;28;20191;-85
2021/04/08 07:50:58;;;;;;;10.02;7.05;;;3.80;99.90;;;;;;4976452;28;20201;-85
2021/04/08 07:53:25;;;;;;;10.05;8.80;;;3.80;99.90;;;;;;4976875;28;20598;-84
2021/04/08 07:55:51;;;;;;;12.70;5.85;;;3.90;99.90;;;;;;4976561;28;20197;-85
2021/04/08 07:58:17;;;;;;;14.25;8.50;;;3.90;99.90;;;;;;4977264;28;20288;-85
2021/04/08 08:00:49;;;;;;;12.05;8.25;;;4.00;99.90;;;;;;4977025;28;20202;-85
2021/04/08 08:03:25;;;;;;;12.57;7.25;;;4.10;99.90;;;;;;4976671;28;20217;-86
2021/04/08 08:05:58;;;;;;;10.00;7.40;;;4.30;99.90;;;;;;4976748;28;20225;-86
2021/04/08 08:08:25;;;;;;;13.80;8.23;;;4.40;99.90;;;;;;4976789;28;20194;-86
2021/04/08 08:11:03;;;;;;;9.52;7.38;;;4.50;99.90;;;;;;4976885;28;20191;-86
2021/04/08 08:13:31;;;;;;;11.57;6.65;;;4.50;99.90;;;;;;4977578;28;20210;-85
2021/04/08 08:16:02;;;;;;;6.97;5.25;;;4.70;99.90;;;;;;4978329;28;20222;-85
2021/04/08 08:18:31;;;;;;;7.47;6.32;;;4.90;99.90;;;;;;4978090;28;20202;-86
2021/04/08 08:21:09;;;;;;;11.10;7.10;;;5.00;99.90;;;;;;4957632;28;586500;-86
2021/04/08 08:23:40;;;;;;;9.77;5.78;;;4.90;99.90;;;;;;4977472;28;20191;-86
2021/04/08 08:26:33;;;;;;;7.72;5.85;;;4.90;99.90;;;;;;4979173;28;20191;-85
2021/04/08 08:29:02;;;;;;;9.50;6.43;;;4.90;99.90;;;;;;4979971;28;20330;-85
2021/04/08 08:31:48;;;;;;;7.70;5.22;;;5.00;99.90;;;;;;4978136;28;20224;-86
2021/04/08 08:34:20;;;;;;;13.48;6.68;;;5.00;99.90;;;;;;4975635;28;20250;-86
2021/04/08 08:36:49;;;;;;;8.40;4.30;;;5.10;99.90;;;;;;4977110;28;20203;-86
2021/04/08 08:39:18;;;;;;;13.20;6.20;;;5.10;99.90;;;;;;4976879;28;20194;-86
2021/04/08 08:41:49;;;;;;;9.60;5.35;;;5.20;99.90;;;;;;4975972;28;20195;-86
2021/04/08 08:44:17;;;;;;;15.05;6.72;;;5.40;99.90;;;;;;4976809;28;20663;-86
2021/04/08 08:46:49;;;;;;;10.80;6.20;;;5.70;99.90;;;;;;4977377;28;20212;-87
2021/04/08 08:49:21;;;;;;;8.65;6.43;;;5.80;99.90;;;;;;4977350;28;20291;-86
2021/04/08 08:51:50;;;;;;;6.80;5.13;;;5.90;99.90;;;;;;4977332;28;20277;-86
2021/04/08 08:54:16;;;;;;;8.18;5.00;;;6.00;99.90;;;;;;4978389;28;20187;-86
2021/04/08 08:56:43;;;;;;;4.70;3.97;;;6.20;99.90;;;;;;4983336;28;20191;-86
2021/04/08 08:59:10;;;;;;;7.03;3.88;;;5.90;99.90;;;;;;4981672;28;20277;-86
2021/04/08 09:01:38;;;;;;;12.57;5.97;;;6.00;99.90;;;;;;4980510;28;20197;-83
2021/04/08 09:04:06;;;;;;;6.30;4.20;;;6.00;99.90;;;;;;4985859;28;20289;-82
2021/04/08 09:06:34;;;;;;;7.40;4.05;;;6.00;99.90;;;;;;4982547;28;20187;-82
2021/04/08 09:09:06;;;;;;;8.32;4.47;;;6.10;99.90;;;;;;4982339;28;20222;-83
2021/04/08 09:11:36;;;;;;;8.27;5.03;;;6.20;99.90;;;;;;4982262;28;20607;-85
2021/04/08 09:14:03;;;;;;;6.13;3.78;;;6.30;99.90;;;;;;4984079;28;20289;-85
2021/04/08 09:16:31;;;;;;;5.65;3.83;;;6.30;99.90;;;;;;4981723;28;20218;-83
2021/04/08 09:18:59;;;;;;;4.70;3.00;;;6.20;99.90;;;;;;4982563;28;20183;-83
2021/04/08 09:21:27;;;;;;;5.55;2.90;;;6.10;99.90;;;;;;4984349;28;20218;-83
2021/04/08 09:24:14;;;;;;;5.47;3.25;;;5.90;99.90;;;;;;4981817;28;20262;-85
2021/04/08 09:26:41;;;;;;;5.07;2.50;;;5.90;99.90;;;;;;4981872;28;20254;-85
2021/04/08 09:29:09;;;;;;;5.40;2.95;;;6.00;99.90;;;;;;4981762;28;20179;-84
2021/04/08 09:31:35;;;;;;;6.20;2.25;;;6.10;99.90;;;;;;4983021;28;20191;-85
2021/04/08 09:34:02;;;;;;;7.72;2.80;;;6.30;99.90;;;;;;4984513;28;20606;-84
2021/04/08 09:36:43;;;;;;;4.60;2.70;;;6.60;99.90;;;;;;4984559;28;20553;-84
2021/04/08 09:39:28;;;;;;;6.60;3.33;;;6.70;99.90;;;;;;4980744;28;20187;-84
2021/04/08 09:42:02;;;;;;;5.88;2.88;;;6.50;99.90;;;;;;4965785;28;20647;-84
2021/04/08 09:44:30;;;;;;;5.10;2.03;;;6.60;99.90;;;;;;4982449;28;20217;-86
2021/04/08 09:46:59;;;;;;;4.38;2.55;;;6.40;99.90;;;;;;4982799;28;20669;-85
2021/04/08 09:49:48;;;;;;;10.73;2.80;;;6.40;99.90;;;;;;4982096;28;20194;-86
2021/04/08 09:52:17;;;;;;;9.48;4.00;;;6.50;99.90;;;;;;4971426;28;20199;-86
2021/04/08 09:54:51;;;;;;;12.57;5.03;;;6.70;99.90;;;;;;4990593;28;20254;-84
2021/04/08 09:57:37;;;;;;;5.13;3.15;;;6.80;99.90;;;;;;4981835;28;20202;-83
2021/04/08 10:00:07;;;;;;;9.40;3.63;;;6.90;99.90;;;;;;4977693;28;20182;-84
2021/04/08 10:02:34;;;;;;;4.88;3.58;;;7.30;99.90;;;;;;4980517;28;20191;-85
2021/04/08 10:05:09;;;;;;;4.50;2.72;;;7.20;99.90;;;;;;4978382;28;20309;-87
2021/04/08 10:07:56;;;;;;;8.50;3.10;;;6.80;99.90;;;;;;4978847;28;20198;-83
2021/04/08 10:10:39;;;;;;;7.95;3.78;;;6.70;99.90;;;;;;4980512;28;20582;-84
2021/04/08 10:13:18;;;;;;;4.95;2.50;;;6.80;99.90;;;;;;4979169;28;20233;-86
2021/04/08 10:15:46;;;;;;;6.68;2.97;;;6.80;99.90;;;;;;4978853;28;20286;-86
2021/04/08 10:18:15;;;;;;;4.50;3.58;;;6.70;99.90;;;;;;4978406;28;20209;-86
2021/04/08 10:20:44;;;;;;;4.43;2.88;;;6.90;99.90;;;;;;4978297;28;20226;-85
2021/04/08 10:23:12;;;;;;;3.60;3.00;;;6.90;99.90;;;;;;4981745;28;20734;-87
2021/04/08 10:25:39;;;;;;;4.47;2.90;;;6.80;99.90;;;;;;4978387;28;20226;-85
2021/04/08 10:28:06;;;;;;;5.85;2.92;;;6.70;99.90;;;;;;4981254;28;20221;-84
2021/04/08 10:30:38;;;;;;;3.75;2.33;;;6.90;99.90;;;;;;4978872;28;20290;-85
2021/04/08 10:33:18;;;;;;;5.30;2.78;;;6.80;99.90;;;;;;4978437;28;20190;-85
2021/04/08 10:35:45;;;;;;;7.95;3.13;;;6.90;99.90;;;;;;4977215;28;20201;-85
2021/04/08 10:38:12;;;;;;;4.43;2.88;;;7.20;99.90;;;;;;4977531;28;20206;-85
2021/04/08 10:40:47;;;;;;;3.75;3.17;;;7.70;99.90;;;;;;4977453;28;20187;-85
2021/04/08 10:43:15;;;;;;;3.75;2.50;;;7.80;99.90;;;;;;4978382;28;20187;-85
2021/04/08 10:45:51;;;;;;;4.13;2.92;;;7.70;99.90;;;;;;4977916;28;20218;-85
2021/04/08 10:48:18;;;;;;;4.22;3.70;;;7.70;99.90;;;;;;4982374;28;20639;-85
2021/04/08 10:50:44;;;;;;;3.90;2.35;;;7.60;99.90;;;;;;4983852;28;20258;-85
2021/04/08 10:53:13;;;;;;;4.00;2.63;;;7.40;99.90;;;;;;4996411;28;20251;-85
2021/04/08 10:55:39;;;;;;;6.75;4.15;;;7.40;99.90;;;;;;4999252;28;20191;-85
2021/04/08 10:58:20;;;;;;;6.13;4.10;;;7.30;99.90;;;;;;4977382;28;20190;-83
2021/04/08 11:00:46;;;;;;;11.73;4.53;;;7.00;99.90;;;;;;4977907;28;20218;-83
2021/04/08 11:03:14;;;;;;;7.13;4.22;;;6.80;99.90;;;;;;4977287;28;20194;-83
2021/04/08 11:05:40;;;;;;;12.18;4.85;;;6.80;99.90;;;;;;4977031;28;20702;-84
2021/04/08 11:08:07;;;;;;;5.03;4.00;;;7.00;99.90;;;;;;4978721;28;20270;-84
2021/04/08 11:10:34;;;;;;;9.70;4.93;;;7.10;99.90;;;;;;4977256;28;20209;-84
2021/04/08 11:13:02;;;;;;;6.57;3.70;;;7.20;99.90;;;;;;4976990;28;20198;-84
2021/04/08 11:15:30;;;;;;;6.43;3.10;;;7.20;99.90;;;;;;4977268;28;20190;-85
2021/04/08 11:18:01;;;;;;;6.25;3.60;;;7.40;99.90;;;;;;4976556;28;20179;-84
2021/04/08 11:20:31;;;;;;;6.30;3.70;;;7.40;99.90;;;;;;4976397;28;20219;-85
2021/04/08 11:22:58;;;;;;;5.28;3.72;;;7.30;99.90;;;;;;4975537;28;20189;-84
2021/04/08 11:25:27;;;;;;;7.03;3.53;;;7.50;99.90;;;;;;4976403;28;20207;-85
2021/04/08 11:27:59;;;;;;;6.18;3.58;;;7.60;99.90;;;;;;4977333;28;20669;-83
2021/04/08 11:30:28;;;;;;;8.52;5.30;;;8.00;99.90;;;;;;4977863;28;20690;-85
2021/04/08 11:32:56;;;;;;;8.65;5.38;;;8.00;99.90;;;;;;4977865;28;20199;-84
2021/04/08 11:35:30;;;;;;;5.25;4.10;;;8.20;99.90;;;;;;4984684;28;20186;-83
2021/04/08 11:38:09;;;;;;;5.22;3.90;;;8.40;99.90;;;;;;4978418;28;20191;-84
2021/04/08 11:40:35;;;;;;;7.00;4.28;;;8.80;99.90;;;;;;4971565;28;20191;-84
2021/04/08 11:43:23;;;;;;;7.78;3.97;;;9.30;99.90;;;;;;4981049;28;20263;-84
2021/04/08 11:45:49;;;;;;;9.25;4.05;;;8.80;99.90;;;;;;4978710;28;20301;-83
2021/04/08 11:48:16;;;;;;;5.50;4.18;;;8.30;99.90;;;;;;4977398;28;20462;-83
2021/04/08 11:50:45;;;;;;;6.15;4.80;;;8.40;99.90;;;;;;4976708;28;20194;-86
2021/04/08 11:53:13;;;;;;;5.70;3.40;;;8.50;99.90;;;;;;4973935;28;20187;-84
2021/04/08 11:55:42;;;;;;;5.82;4.20;;;8.60;99.90;;;;;;4975358;28;20198;-84
2021/04/08 11:58:12;;;;;;;6.50;3.28;;;8.50;99.90;;;;;;4972891;28;20258;-84
2021/04/08 12:03:25;;;;;;;3.38;2.95;;;8.60;99.90;;;;;;4978065;28;20183;-86
2021/04/08 12:05:51;;;;;;;5.38;3.42;;;8.60;99.90;;;;;;4977501;28;20218;-85
2021/04/08 12:08:39;;;;;;;6.45;3.65;;;8.80;99.90;;;;;;4978695;28;20232;-86
2021/04/08 12:11:05;;;;;;;6.97;3.47;;;8.40;99.90;;;;;;4978773;28;20222;-87
2021/04/08 12:13:33;;;;;;;4.18;3.78;;;7.90;99.90;;;;;;4969466;28;20536;-86
2021/04/08 12:16:00;;;;;;;5.28;4.65;;;;;;;;;;4978932;28;20210;-86
2021/04/08 12:18:29;;;;;;;7.22;4.07;;;8.10;99.90;;;;;;4979070;28;20207;-87
2021/04/08 12:20:57;;;;;;;6.57;3.92;;;8.10;99.90;;;;;;4979605;28;20253;-85
2021/04/08 12:23:25;;;;;;;4.50;3.38;;;7.90;99.90;;;;;;4978521;28;20586;-84
2021/04/08 12:25:53;;;;;;;6.07;3.90;;;7.90;99.90;;;;;;4979726;28;20354;-85
2021/04/08 12:28:21;;;;;;;5.60;4.90;;;8.40;99.90;;;;;;4982626;28;20681;-85
2021/04/08 12:31:00;;;;;;;5.03;3.55;;;9.70;99.90;;;;;;4988462;28;20193;-85
2021/04/08 12:36:10;;;;;;;5.03;4.28;;;10.50;99.90;;;;;;5000050;28;20172;-85
2021/04/08 12:38:37;;;;;;;5.53;4.28;;;;;;;;;;4996395;28;20275;-84
2021/04/08 12:41:05;;;;;;;5.10;3.72;;;10.30;99.90;;;;;;5000237;28;20250;-83
2021/04/08 12:43:32;;;;;;;5.30;3.85;;;;;;;;;;4995353;28;20726;-84
2021/04/08 12:46:00;;;;;;;6.22;5.00;;;10.50;99.90;;;;;;4982000;28;20215;-86
2021/04/08 12:48:27;;;;;;;5.95;4.63;;;;;;;;;;4980590;28;20282;-86
2021/04/08 12:50:56;;;;;;;8.38;4.80;;;10.00;99.90;;;;;;4980933;28;20653;-85
2021/04/08 12:53:23;;;;;;;6.20;4.97;;;9.40;99.90;;;;;;4980336;28;20542;-85
2021/04/08 12:55:51;;;;;;;10.85;5.60;;;9.20;99.90;;;;;;4984655;28;20187;-85
2021/04/08 12:58:17;;;;;;;7.60;4.47;;;;;;;;;;4982661;28;20613;-86
2021/04/08 13:00:44;;;;;;;5.40;4.90;;;;;;;;;;4980117;28;20259;-86
2021/04/08 13:03:12;;;;;;;6.30;5.60;;;11.10;99.90;;;;;;4980530;28;20589;-88
2021/04/08 13:05:40;;;;;;;8.35;4.72;;;11.30;99.90;;;;;;4972501;28;20226;-86